Moorefield, Nebraska
Current Conditions -  °F | °C
As of 2:35 AM on Friday 21 Nov 2014 (Local Time) from KLXN Reporting Station
Clear Clear  
Wind Chill: -10°   Ceiling: Unl
Heat Index: -6°   Visibility: 10mi
Dew Point: -8°   Wind: 6mph
Humidity: 84%   Direction: 140°SE
Pressure: 30.08"   Gusts: NA
Location:  40.69°N, 100.4°W
Report Text: KLXN 210835Z AUTO 14005KT 10SM CLR M06/M08 A3008 RMK AO2 T10571080
Loading
Personal Weather Stations






























Interactive Weather Map New forecast layout! Learn more

10-Day Weather Forecast

Advertisements
Track Severe Weather on mobile